• Join FlightAware (Why Join?)
  • Login
  • US Flag 
02:46PM EST


 

Airport Tracker/Info


-or-


 

Live Flight TrackerFlight Track Log ✈ AIC170 ✈ 19-Jun-2013 ✈ KCHS - EDDF / FRA

Flight Track Log - Related Links

Times and Time Zones

All times are in EDT time to prevent confusion due to time zone crossing. See the AIC170 flight status page for this flight to view local times or setup timezone preferences in your user account.

Time Position Orientation Groundspeed Altitude Reporting Facility
EDT Latitude Longitude Course Direction KTS MPH feet Rate Location/Type
06:51PM 32.9770 -80.0770 14° North 278 320 7,700  Level FlightAware
06:52PM 33.0090 -80.0680 13° North 290 334 9,100 2,471 Climbing FlightAware
06:53PM 33.0970 -80.0500 10° North 333 383 11,200 2,526 Climbing FlightAware
06:53PM 33.1520 -80.0430 North 345 397 13,100 2,925 Climbing FlightAware
06:54PM 33.2260 -80.0300 North 370 426 15,100 2,894 Climbing FlightAware
06:55PM 33.2890 -79.9950 25° Northeast 388 447 17,200 2,925 Climbing FlightAware
06:55PM 33.3420 -79.9400 41° Northeast 401 461 19,000 2,612 Climbing FlightAware
06:56PM 33.3980 -79.8580 51° Northeast 421 484 20,900 2,400 Climbing FlightAware
06:57PM 33.4320 -79.7610 67° East 434 499 22,600 2,250 Climbing FlightAware
06:57PM 33.4570 -79.6850 68° East 443 510 23,900 2,084 Climbing FlightAware
06:58PM 33.5290 -79.5600 55° Northeast 452 520 25,900 1,980 Climbing FlightAware
06:59PM 33.5900 -79.4910 43° Northeast 461 531 27,200 1,950 Climbing FlightAware
07:00PM 33.6490 -79.4290 41° Northeast 469 540 28,500 1,500 Climbing FlightAware
07:01PM 33.7530 -79.3190 41° Northeast 496 571 29,700 1,140 Climbing FlightAware
07:01PM 33.8250 -79.2420 42° Northeast 516 594 30,400 1,200 Climbing FlightAware
07:02PM 33.9050 -79.1570 41° Northeast 528 608 31,400 1,263 Climbing FlightAware
07:03PM 33.9960 -79.0600 41° Northeast 541 623 32,400 1,212 Climbing FlightAware
07:04PM 34.0820 -78.9680 42° Northeast 550 633 33,400 1,533 Climbing FlightAware
07:04PM 34.1700 -78.8740 41° Northeast 548 631 34,700 1,364 Climbing FlightAware
07:05PM 34.2500 -78.7890 41° Northeast 545 627 35,400 1,667 Climbing FlightAware
07:06PM 34.3350 -78.6960 42° Northeast 538 619 37,200 1,426 Climbing FlightAware
07:07PM 34.4350 -78.5900 41° Northeast 539 620 37,800 1,200 Climbing FlightAware
07:08PM 34.5150 -78.5020 42° Northeast 538 619 39,100 1,443 Climbing FlightAware
07:08PM 34.5220 -78.4940 43° Northeast 536 617 39,700 434 Climbing FlightAware
07:09PM 34.5860 -78.4240 42° Northeast 536 617 39,700 867 Level FlightAware
07:10PM 34.7580 -78.2370 42° Northeast 533 613 41,000 876 Climbing FlightAware
07:10PM 34.8320 -78.1560 42° Northeast 533 613 41,000  Level FlightAware
07:11PM 34.9270 -78.0510 42° Northeast 533 613 41,000  Level FlightAware
07:12PM 34.9900 -77.9810 42° Northeast 533 613 41,000  Level FlightAware
07:13PM 35.0480 -77.9180 42° Northeast 533 613 41,000  Level FlightAware
07:13PM 35.1130 -77.8460 42° Northeast 533 613 41,000  Level FlightAware
07:14PM 35.1850 -77.7670 42° Northeast 533 613 41,000  Level FlightAware
07:15PM 35.2800 -77.6620 42° Northeast 533 613 41,000  Level FlightAware
07:16PM 35.3380 -77.5990 42° Northeast 533 613 41,000  Level FlightAware
07:17PM 35.4120 -77.5160 42° Northeast 533 613 41,000  Level FlightAware
07:17PM 35.4650 -77.4580 42° Northeast 533 613 41,000  Level FlightAware
07:18PM 35.6850 -77.2830 33° Northeast 541 623 41,000  Level FlightAware
07:19PM 35.7500 -77.2270 35° Northeast 542 624 41,000  Level FlightAware
07:19PM 35.8620 -77.1270 36° Northeast 543 625 41,000  Level FlightAware
07:20PM 35.9610 -77.0390 36° Northeast 545 627 41,000  Level FlightAware
07:21PM 36.0260 -76.9810 36° Northeast 545 627 41,000  Level FlightAware
07:22PM 36.1390 -76.8800 36° Northeast 546 628 41,000  Level FlightAware
07:22PM 36.2430 -76.7880 35° Northeast 549 632 41,000  Level FlightAware
07:23PM 36.3280 -76.7120 36° Northeast 550 633 41,000  Level FlightAware
07:24PM 36.4580 -76.5950 36° Northeast 550 633 41,000  Level FlightAware
07:25PM 36.5400 -76.5210 36° Northeast 551 634 41,000  Level FlightAware
07:26PM 36.6260 -76.4420 36° Northeast 551 634 41,000  Level FlightAware
07:26PM 36.7220 -76.3560 36° Northeast 551 634 41,000  Level FlightAware
07:27PM 36.8060 -76.2790 36° Northeast 553 636 41,000  Level FlightAware
07:28PM 36.9260 -76.1830 33° Northeast 545 627 41,000  Level FlightAware
07:28PM 36.9858 -76.1507 23° Northeast 540 621 41,000  Level FlightAware ADS-B
07:29PM 37.0702 -76.1059 23° Northeast 537 618 41,000  Level FlightAware ADS-B
07:29PM 37.1420 -76.0677 23° Northeast 533 613 41,000  Level FlightAware ADS-B
07:30PM 37.2109 -76.0311 23° Northeast 532 612 41,000  Level FlightAware ADS-B
07:31PM 37.3290 -75.9680 23° Northeast 531 611 41,000  Level FlightAware
07:32PM 37.4050 -75.9270 23° Northeast 531 611 41,000  Level FlightAware
07:32PM 37.4660 -75.8940 23° Northeast 537 618 41,000  Level FlightAware
07:33PM 37.5677 -75.8320 26° Northeast 547 629 41,000  Level FlightAware ADS-B
07:33PM 37.6615 -75.7622 30° Northeast 552 635 41,000  Level FlightAware ADS-B
07:35PM 37.9230 -75.5650 31° Northeast 553 636 41,000  Level FlightAware
07:36PM 38.0270 -75.4850 31° Northeast 555 639 41,000  Level FlightAware
07:37PM 38.1010 -75.4170 36° Northeast 560 644 41,000  Level FlightAware
07:38PM 38.2104 -75.3034 39° Northeast 564 649 41,000  Level FlightAware ADS-B
07:38PM 38.2752 -75.2354 39° Northeast 565 650 41,000  Level FlightAware ADS-B
07:39PM 38.3595 -75.1469 39° Northeast 567 652 41,000  Level FlightAware ADS-B
07:39PM 38.4204 -75.0826 40° Northeast 567 652 41,000  Level FlightAware ADS-B
07:40PM 38.4839 -75.0157 40° Northeast 568 654 41,000  Level FlightAware ADS-B
07:41PM 38.5656 -74.9292 40° Northeast 568 654 41,000  Level FlightAware ADS-B
07:41PM 38.6270 -74.8640 40° Northeast 569 655 41,000  Level FlightAware ADS-B
07:42PM 38.6892 -74.7978 40° Northeast 569 655 41,000  Level FlightAware ADS-B
07:42PM 38.7511 -74.7318 40° Northeast 570 656 41,000  Level FlightAware ADS-B
07:43PM 38.8118 -74.6670 40° Northeast 571 657 41,000  Level FlightAware ADS-B
07:43PM 38.8838 -74.5898 40° Northeast 571 657 41,000  Level FlightAware ADS-B
07:44PM 38.9455 -74.5234 40° Northeast 566 651 41,000  Level FlightAware ADS-B
07:44PM 39.0199 -74.4437 40° Northeast 564 649 41,000  Level FlightAware ADS-B
07:45PM 39.1170 -74.3388 40° Northeast 562 647 41,000  Level FlightAware ADS-B
07:46PM 39.1834 -74.2668 40° Northeast 564 649 41,000  Level FlightAware ADS-B
07:46PM 39.2622 -74.1812 40° Northeast 567 652 41,000  Level FlightAware ADS-B
07:47PM 39.3266 -74.1110 40° Northeast 566 651 41,000  Level FlightAware ADS-B
07:47PM 39.3877 -74.0441 40° Northeast 567 652 41,000  Level FlightAware ADS-B
07:48PM 39.4485 -73.9776 40° Northeast 567 652 41,000  Level FlightAware ADS-B
07:48PM 39.5116 -73.9083 40° Northeast 567 652 41,000  Level FlightAware ADS-B
07:49PM 39.5779 -73.8354 40° Northeast 567 652 41,000  Level FlightAware ADS-B
07:49PM 39.6424 -73.7641 40° Northeast 567 652 41,000  Level FlightAware ADS-B
07:50PM 39.7077 -73.6918 40° Northeast 566 651 41,000  Level FlightAware ADS-B
07:51PM 39.7730 -73.6190 41° Northeast 565 650 41,000  Level FlightAware
07:51PM 39.7923 -73.5979 40° Northeast 565 650 41,000  Level FlightAware ADS-B
07:51PM 39.8531 -73.5158 46° Northeast 566 651 41,000  Level FlightAware ADS-B
07:51PM 39.8625 -73.4999 52° Northeast 575 662 41,000  Level FlightAware ADS-B
07:52PM 39.9120 -73.3940 59° Northeast 578 665 41,000  Level FlightAware
07:52PM 39.9234 -73.3681 60° Northeast 578 665 41,000  Level FlightAware ADS-B
07:53PM 39.9677 -73.2648 61° Northeast 579 666 41,000  Level FlightAware ADS-B
07:53PM 40.0077 -73.1712 61° Northeast 579 666 41,000  Level FlightAware ADS-B
07:54PM 40.0469 -73.0792 61° Northeast 579 666 41,000  Level FlightAware ADS-B
07:54PM 40.0886 -72.9811 61° Northeast 579 666 41,000  Level FlightAware ADS-B
07:55PM 40.1299 -72.8835 61° Northeast 578 665 41,000  Level FlightAware ADS-B
07:55PM 40.1722 -72.7834 61° Northeast 579 666 41,000  Level FlightAware ADS-B
07:56PM 40.2108 -72.6917 61° Northeast 578 665 41,000  Level FlightAware ADS-B
07:56PM 40.2506 -72.5968 61° Northeast 578 665 41,000  Level FlightAware ADS-B
07:57PM 40.2908 -72.5007 61° Northeast 579 666 41,000  Level FlightAware ADS-B
07:57PM 40.3353 -72.3937 61° Northeast 579 666 41,000  Level FlightAware ADS-B
07:58PM 40.3943 -72.2520 61° Northeast 580 667 41,000  Level FlightAware ADS-B
07:59PM 40.4588 -72.0956 62° Northeast 580 667 41,000  Level FlightAware ADS-B
08:00PM 40.5064 -71.9797 62° Northeast 582 670 41,000  Level FlightAware ADS-B
08:00PM 40.5526 -71.8668 62° Northeast 581 669 41,000  Level FlightAware ADS-B
08:01PM 40.6040 -71.7410 62° Northeast 580 667 41,000  Level FlightAware
08:01PM 40.6263 -71.6860 62° Northeast 581 669 41,000  Level FlightAware ADS-B
08:02PM 40.7140 -71.4690 62° Northeast 579 666 41,000  Level FlightAware
08:03PM 40.7680 -71.3360 62° Northeast 581 669 41,000  Level FlightAware
08:04PM 40.8120 -71.2270 62° Northeast 581 669 41,000  Level FlightAware
08:04PM 40.8622 -71.0995 62° Northeast 581 669 41,000  Level FlightAware ADS-B
08:05PM 40.9440 -70.9040 61° Northeast 581 669 41,000  Level FlightAware ADS-B
08:06PM 41.0020 -70.7790 58° Northeast 578 665 41,000  Level FlightAware
08:07PM 41.0730 -70.6260 58° Northeast 578 665 41,000  Level FlightAware
08:08PM 41.1320 -70.4930 59° Northeast 575 662 41,000  Level FlightAware
08:08PM 41.1830 -70.3820 59° Northeast 575 662 41,000  Level FlightAware
08:09PM 41.2370 -70.2610 59° Northeast 575 662 41,000  Level FlightAware
08:13PM 41.5350 -69.5960 59° Northeast 581 669 41,000  Level FlightAware
08:14PM 41.6140 -69.4140 60° Northeast 580 667 41,000  Level FlightAware
08:14PM 41.6560 -69.3160 60° Northeast 580 667 41,000  Level FlightAware
08:15PM 41.7330 -69.1440 59° Northeast 41,000  Level FlightAware
08:16PM 41.7770 -69.0430 60° Northeast 580 667 41,000  Level FlightAware
08:17PM 41.8900 -68.7820 60° Northeast 579 666 41,000  Level FlightAware
08:17PM 41.9320 -68.6840 60° Northeast 580 667 41,000  Level FlightAware
08:18PM 41.9760 -68.5790 61° Northeast 578 665 41,000  Level FlightAware
08:19PM 42.0390 -68.4320 60° Northeast 579 666 41,000  Level FlightAware
08:20PM 42.1160 -68.2510 60° Northeast 580 667 41,000  Level FlightAware
08:21PM 42.2080 -68.0330 60° Northeast 578 665 41,000  Level FlightAware
08:22PM 42.2770 -67.8660 61° Northeast 579 666 41,000  Level FlightAware
08:23PM 42.3360 -67.7240 61° Northeast 580 667 41,000  Level FlightAware
08:23PM 42.3830 -67.6110 61° Northeast 581 669 41,000  Level FlightAware
08:24PM 42.4620 -67.4190 61° Northeast 581 669 41,000  Level FlightAware
08:25PM 42.5030 -67.3180 61° Northeast 581 669 41,000  Level FlightAware
08:26PM 42.5440 -67.2180 61° Northeast 581 669 41,000  Level FlightAware
08:26PM 42.5970 -67.0880 61° Northeast 581 669 41,000  Level FlightAware
08:27PM 42.6380 -66.9870 61° Northeast 581 669 41,000  Level FlightAware
08:28PM 42.7640 -66.7450 55° Northeast 587 676 41,000  Level FlightAware
08:28PM 42.8240 -66.6280 55° Northeast 582 670 41,000  Level FlightAware
08:29PM 42.9110 -66.4550 55° Northeast 584 672 41,000  Level FlightAware
08:30PM 42.9810 -66.3180 55° Northeast 586 674 41,000  Level FlightAware
08:31PM 43.0440 -66.1930 55° Northeast 585 673 41,000  Level FlightAware
08:32PM 43.1130 -66.0550 56° Northeast 584 672 41,000  Level FlightAware
08:32PM 43.1730 -65.9330 56° Northeast 583 671 41,000  Level FlightAware
08:33PM 43.2490 -65.7810 55° Northeast 581 669 41,000  Level FlightAware
08:34PM 43.3250 -65.6270 56° Northeast 580 667 41,000  Level FlightAware
08:35PM 43.3850 -65.5050 56° Northeast 582 670 41,000  Level FlightAware
08:35PM 43.4450 -65.3810 56° Northeast 583 671 41,000  Level FlightAware
08:36PM 43.5140 -65.2400 56° Northeast 583 671 41,000  Level FlightAware
08:37PM 43.5710 -65.1210 57° Northeast 582 670 41,000  Level FlightAware
08:37PM 43.6270 -65.0070 56° Northeast 582 670 41,000  Level FlightAware
08:38PM 43.7010 -64.8530 56° Northeast 580 667 41,000  Level FlightAware
08:39PM 43.7590 -64.7300 57° Northeast 580 667 41,000  Level FlightAware
08:39PM 43.8130 -64.6170 56° Northeast 574 661 41,000  Level FlightAware
08:40PM 43.8530 -64.5330 57° Northeast 574 661 41,000  Level FlightAware
08:40PM 43.9090 -64.4160 56° Northeast 578 665 41,000  Level FlightAware
08:41PM 43.9780 -64.2700 57° Northeast 580 667 41,000  Level FlightAware
08:42PM 44.0330 -64.1510 57° Northeast 582 670 41,000  Level FlightAware
08:43PM 44.0920 -64.0250 57° Northeast 584 672 41,000  Level FlightAware
08:43PM 44.1610 -63.8770 57° Northeast 583 671 41,000  Level FlightAware
08:44PM 44.2540 -63.6760 57° Northeast 583 671 41,000  Level FlightAware
08:45PM 44.2870 -63.6030 58° Northeast 584 672 41,000  Level FlightAware
08:46PM 44.3750 -63.4120 57° Northeast 583 671 41,000  Level FlightAware
08:46PM 44.4270 -63.2970 58° Northeast 584 672 41,000  Level FlightAware
08:47PM 44.4940 -63.1490 58° Northeast 584 672 41,000  Level FlightAware
08:48PM 44.5570 -63.0090 58° Northeast 585 673 41,000  Level FlightAware
08:49PM 44.6190 -62.8720 58° Northeast 585 673 41,000  Level FlightAware
08:49PM 44.6880 -62.7160 58° Northeast 586 674 41,000  Level FlightAware
08:50PM 44.6290 -62.8490 238° Southwest 585 673 41,000  Level FlightAware
08:51PM 44.6750 -62.7440 58° Northeast 585 673 41,000  Level FlightAware
08:52PM 44.7340 -62.6130 58° Northeast 585 673 41,000  Level FlightAware
08:52PM 44.7790 -62.5110 58° Northeast 585 673 41,000  Level FlightAware
08:53PM 44.8380 -62.3790 58° Northeast 585 673 41,000  Level FlightAware
08:54PM 44.8810 -62.2800 58° Northeast 585 673 41,000  Level FlightAware
08:55PM 44.9410 -62.1450 58° Northeast 585 673 41,000  Level FlightAware
08:56PM 45.0080 -61.9930 58° Northeast 585 673 41,000  Level FlightAware
08:56PM 45.2550 -61.4140 59° Northeast 585 673 41,000  Level FlightAware
08:57PM 45.3170 -61.2660 59° Northeast 585 673 41,000  Level FlightAware
08:58PM 45.3810 -61.1140 59° Northeast 584 672 41,000  Level FlightAware
08:58PM 45.4330 -60.9910 59° Northeast 586 674 41,000  Level FlightAware
08:59PM 45.4970 -60.8380 59° Northeast 585 673 41,000  Level FlightAware
09:00PM 45.5530 -60.7050 59° Northeast 585 673 41,000  Level FlightAware
09:00PM 45.6130 -60.5580 60° Northeast 586 674 41,000  Level FlightAware
09:01PM 45.6700 -60.4190 60° Northeast 587 676 41,000  Level FlightAware
09:02PM 45.7250 -60.2860 59° Northeast 587 676 41,000  Level FlightAware
09:02PM 45.7850 -60.1380 60° Northeast 585 673 41,000  Level FlightAware
09:03PM 45.8400 -60.0030 60° Northeast 584 672 41,000  Level FlightAware
09:04PM 45.8930 -59.8710 60° Northeast 582 670 41,000  Level FlightAware
09:05PM 45.9540 -59.7180 60° Northeast 581 669 41,000  Level FlightAware
09:05PM 46.0110 -59.5760 60° Northeast 581 669 41,000  Level FlightAware
09:06PM 46.0590 -59.4550 60° Northeast 581 669 41,000  Level FlightAware
09:07PM 46.1220 -59.2960 60° Northeast 580 667 41,000  Level FlightAware
09:07PM 46.1780 -59.1530 60° Northeast 579 666 41,000  Level FlightAware
09:08PM 46.2300 -59.0190 61° Northeast 580 667 41,000  Level FlightAware
09:09PM 46.2830 -58.8830 61° Northeast 581 669 41,000  Level FlightAware
09:09PM 46.3370 -58.7430 61° Northeast 580 667 41,000  Level FlightAware
09:10PM 46.3700 -58.6590 60° Northeast 581 669 41,000  Level FlightAware
09:11PM 46.4210 -58.5240 61° Northeast 581 669 41,000  Level FlightAware
09:11PM 46.4860 -58.3550 61° Northeast 580 667 41,000  Level FlightAware
09:12PM 46.5410 -58.2100 61° Northeast 581 669 41,000  Level FlightAware
09:13PM 46.5890 -58.0840 61° Northeast 582 670 41,000  Level FlightAware
09:13PM 46.6480 -57.9260 61° Northeast 583 671 41,000  Level FlightAware
09:14PM 46.7140 -57.7510 61° Northeast 583 671 41,000  Level FlightAware
09:15PM 46.7680 -57.6040 62° Northeast 583 671 41,000  Level FlightAware
09:16PM 46.8230 -57.4550 62° Northeast 584 672 41,000  Level FlightAware
09:16PM 46.8680 -57.3290 62° Northeast 583 671 41,000  Level FlightAware
09:17PM 46.9310 -57.1410 64° Northeast 584 672 41,000  Level FlightAware
09:18PM 46.9780 -56.9970 64° Northeast 584 672 41,000  Level FlightAware
09:19PM 47.0240 -56.8560 64° Northeast 584 672 41,000  Level FlightAware
09:19PM 47.0700 -56.7150 64° Northeast 583 671 41,000 -122 Level FlightAware
09:20PM 47.1380 -56.5080 64° Northeast 583 671 40,800 -529 Descending FlightAware
09:21PM 47.1810 -56.3760 64° Northeast 591 680 40,100 -600 Descending FlightAware
09:22PM 47.2330 -56.2150 65° Northeast 602 693 40,000 -70 Descending FlightAware
09:22PM 47.2940 -56.0280 64° Northeast 602 693 40,000  Level FlightAware
09:23PM 47.3360 -55.8960 65° Northeast 600 690 40,000  Level FlightAware
09:24PM 47.3830 -55.7470 65° Northeast 600 690 40,000  Level FlightAware
09:24PM 47.4350 -55.5800 65° Northeast 604 695 40,000  Level FlightAware
09:25PM 47.4870 -55.4140 65° Northeast 603 694 40,000  Level FlightAware
09:26PM 47.5320 -55.2690 65° Northeast 603 694 40,000  Level FlightAware
09:27PM 47.5860 -55.0970 65° Northeast 605 696 40,000  Level FlightAware
09:27PM 47.6370 -54.9300 66° East 606 697 40,000  Level FlightAware
09:28PM 47.6820 -54.7820 66° East 608 700 40,000  Level FlightAware
09:29PM 47.7310 -54.6190 66° East 607 699 40,000  Level FlightAware
09:29PM 47.7770 -54.4670 66° East 607 699 40,000  Level FlightAware
09:30PM 47.8400 -54.2570 66° East 608 700 40,000  Level FlightAware
09:31PM 47.8860 -54.1000 66° East 608 700 40,000  Level FlightAware
09:32PM 47.9380 -53.9250 66° East 610 702 40,000  Level FlightAware
09:32PM 47.9830 -53.7700 67° East 610 702 40,000  Level FlightAware
09:33PM 48.0320 -53.6030 66° East 610 702 40,000  Level FlightAware
09:34PM 48.0770 -53.4460 67° East 610 702 40,000  Level FlightAware
09:34PM 48.1260 -53.2760 67° East 610 702 40,000  Level FlightAware
09:36PM 48.2200 -52.9440 67° East 612 704 40,000  Level FlightAware
09:37PM 48.2660 -52.7800 67° East 612 704 40,000  Level FlightAware
09:37PM 48.3050 -52.6400 67° East 614 707 40,000  Level FlightAware
09:38PM 48.3450 -52.4980 67° East 613 705 40,000  Level FlightAware
09:39PM 48.3980 -52.3040 68° East 613 705 40,000  Level FlightAware
09:39PM 48.4480 -52.1200 68° East 612 704 40,000  Level FlightAware
09:40PM 48.4830 -51.9930 67° East 613 705 40,000  Level FlightAware
09:41PM 48.5350 -51.8000 68° East 615 708 40,000  Level FlightAware
09:41PM 48.5790 -51.6350 68° East 616 709 40,000  Level FlightAware
09:42PM 48.6230 -51.4710 68° East 616 709 40,000  Level FlightAware
09:43PM 48.6640 -51.3140 68° East 615 708 40,000  Level FlightAware
09:43PM 48.7070 -51.1520 68° East 615 708 40,000  Level FlightAware
09:44PM 48.7510 -50.9810 69° East 615 708 40,000  Level FlightAware
09:45PM 48.7990 -50.7960 68° East 616 709 40,000  Level FlightAware
09:46PM 48.8350 -50.6550 69° East 615 708 40,000  Level FlightAware
09:46PM 48.8910 -50.4400 68° East 616 709 40,000  Level FlightAware
09:47PM 48.9370 -50.2660 68° East 616 709 40,000  Level FlightAware
09:48PM 48.9710 -50.1390 68° East 616 709 40,000  Level FlightAware
09:49PM 49.0060 -50.0050 68° East 616 709 40,000  Level FlightAware
09:49PM 49.0510 -49.8340 68° East 616 709 40,000  Level FlightAware
09:50PM 49.0000 -50.0000 69° East 590 679 40,000  Level ETMS Enhanced Traffic Management System
09:50PM 49.0860 -49.7040 68° East 616 709 40,000  Level FlightAware
09:51PM 49.1220 -49.5670 68° East 616 709 40,000  Level FlightAware
09:52PM 49.1660 -49.4020 68° East 616 709 40,000  Level FlightAware
09:52PM 49.1960 -49.2850 69° East 616 709 40,000  Level FlightAware
09:53PM 49.2380 -49.1270 68° East 616 709 40,000  Level FlightAware
09:54PM 49.2800 -48.9680 68° East 616 709 40,000  Level FlightAware
09:54PM 49.3120 -48.8440 68° East 616 709 40,000  Level FlightAware
09:55PM 49.3470 -48.7130 69° East 616 709 40,000  Level FlightAware
09:56PM 49.3920 -48.5410 68° East 616 709 40,000  Level FlightAware
09:57PM 49.4833 -47.8500 68° East 620 713 40,000  Level Gander Center
09:58PM 49.5333 -47.6333 70° East 620 713 40,000  Level Gander Center
09:59PM 49.5833 -47.3500 75° East 620 713 40,000  Level Gander Center
10:00PM 49.6500 -47.1500 63° Northeast 620 713 40,000  Level Gander Center
10:02PM 49.7415 -46.7405 71° East  Level FlightAware Approximate
10:09PM 50.0659 -45.2186 71° East  Level FlightAware Approximate
10:10PM 50.1106 -44.9995 72° East  Level FlightAware Approximate
10:11PM 50.1549 -44.7800 72° East  Level FlightAware Approximate
10:12PM 50.1988 -44.5602 73° East  Level FlightAware Approximate
10:13PM 50.2423 -44.3399 73° East  Level FlightAware Approximate
10:14PM 50.2854 -44.1192 73° East  Level FlightAware Approximate
10:15PM 50.3280 -43.8981 73° East  Level FlightAware Approximate
10:16PM 50.3702 -43.6766 73° East  Level FlightAware Approximate
10:17PM 50.4120 -43.4548 73° East  Level FlightAware Approximate
10:18PM 50.4534 -43.2325 74° East  Level FlightAware Approximate
10:19PM 50.4943 -43.0099 74° East  Level FlightAware Approximate
10:20PM 50.5348 -42.7868 74° East  Level FlightAware Approximate
10:21PM 50.5749 -42.5634 74° East  Level FlightAware Approximate
10:22PM 50.6146 -42.3396 74° East  Level FlightAware Approximate
10:23PM 50.6539 -42.1155 74° East  Level FlightAware Approximate
10:24PM 50.6927 -41.8909 75° East  Level FlightAware Approximate
10:25PM 50.7310 -41.6660 75° East  Level FlightAware Approximate
10:26PM 50.7690 -41.4407 75° East  Level FlightAware Approximate
10:27PM 50.8065 -41.2151 75° East  Level FlightAware Approximate
10:28PM 50.8436 -40.9891 75° East  Level FlightAware Approximate
10:29PM 50.8802 -40.7627 76° East  Level FlightAware Approximate
10:30PM 50.9164 -40.5360 76° East  Level FlightAware Approximate
10:30PM 51.0000 -40.0000 86° East 580 667 40,000  Level ETMS Enhanced Traffic Management System
10:31PM 50.9521 -40.3090 76° East  Level FlightAware Approximate
10:32PM 50.9875 -40.0816 76° East  Level FlightAware Approximate
10:33PM 51.0063 -39.8499 86° East  Level FlightAware Approximate
10:34PM 51.0158 -39.6159 86° East  Level FlightAware Approximate
10:35PM 51.0248 -39.3819 86° East  Level FlightAware Approximate
10:36PM 51.0696 -37.9517 88° East 580 667 40,000  Level FlightAware Transoceanic
10:37PM 51.0758 -37.6953 88° East 580 667 40,000  Level FlightAware Transoceanic
10:38PM 51.0814 -37.4388 88° East 580 667 40,000  Level FlightAware Transoceanic
10:39PM 51.0865 -37.1822 88° East 580 667 40,000  Level FlightAware Transoceanic
10:40PM 51.0910 -36.9256 89° East 580 667 40,000  Level FlightAware Transoceanic
10:41PM 51.0949 -36.6689 89° East 580 667 40,000  Level FlightAware Transoceanic
10:42PM 51.0983 -36.4123 89° East 580 667 40,000  Level FlightAware Transoceanic
10:43PM 51.1011 -36.1555 89° East 580 667 40,000  Level FlightAware Transoceanic
10:44PM 51.1034 -35.8988 89° East 580 667 40,000  Level FlightAware Transoceanic
10:45PM 51.1050 -35.6420 90° East 580 667 40,000  Level FlightAware Transoceanic
10:46PM 51.1062 -35.3852 90° East 580 667 40,000  Level FlightAware Transoceanic
10:47PM 51.1067 -35.1284 90° East 580 667 40,000  Level FlightAware Transoceanic
10:48PM 51.1067 -34.8716 90° East 580 667 40,000  Level FlightAware Transoceanic
10:49PM 51.1062 -34.6148 90° East 580 667 40,000  Level FlightAware Transoceanic
10:50PM 51.1050 -34.3580 90° East 580 667 40,000  Level FlightAware Transoceanic
10:51PM 51.1034 -34.1012 91° East 580 667 40,000  Level FlightAware Transoceanic
10:52PM 51.1011 -33.8445 91° East 580 667 40,000  Level FlightAware Transoceanic
10:53PM 51.0983 -33.5877 91° East 580 667 40,000  Level FlightAware Transoceanic
10:54PM 51.0949 -33.3311 91° East 580 667 40,000  Level FlightAware Transoceanic
10:55PM 51.0910 -33.0744 91° East 580 667 40,000  Level FlightAware Transoceanic
10:56PM 51.0865 -32.8178 92° East 580 667 40,000  Level FlightAware Transoceanic
10:57PM 51.0814 -32.5612 92° East 580 667 40,000  Level FlightAware Transoceanic
10:58PM 51.0758 -32.3047 92° East 580 667 40,000  Level FlightAware Transoceanic
10:59PM 51.0696 -32.0483 92° East 580 667 40,000  Level FlightAware Transoceanic
11:00PM 51.0629 -31.7920 92° East 580 667 40,000  Level FlightAware Transoceanic
11:01PM 51.0556 -31.5357 93° East 580 667 40,000  Level FlightAware Transoceanic
11:02PM 51.0477 -31.2795 93° East 580 667 40,000  Level FlightAware Transoceanic
11:03PM 51.0393 -31.0234 93° East 580 667 40,000  Level FlightAware Transoceanic
11:04PM 51.0303 -30.7674 93° East 580 667 40,000  Level FlightAware Transoceanic
11:05PM 51.0208 -30.5115 93° East 580 667 40,000  Level FlightAware Transoceanic
11:06PM 51.0107 -30.2557 94° East 580 667 40,000  Level FlightAware Transoceanic
11:07PM 51.0009 -30.0218 94° East  Level FlightAware Approximate
11:08PM 50.9907 -29.7880 94° East  Level FlightAware Approximate
11:09PM 51.0080 -29.8097 86° East  Level FlightAware Approximate
11:10PM 51.0174 -29.5758 86° East  Level FlightAware Approximate
11:11PM 51.0263 -29.3417 86° East  Level FlightAware Approximate
11:11PM 51.0000 -30.0000 86° East 552 635 40,000  Level ETMS Enhanced Traffic Management System
11:12PM 51.0348 -29.1075 87° East  Level FlightAware Approximate
11:13PM 51.0428 -28.8733 87° East  Level FlightAware Approximate
11:14PM 51.0503 -28.6390 87° East  Level FlightAware Approximate
11:15PM 51.0573 -28.4046 87° East  Level FlightAware Approximate
11:16PM 51.0639 -28.1702 87° East  Level FlightAware Approximate
11:17PM 51.0732 -27.8078 88° East 552 635 40,000  Level FlightAware Transoceanic
11:18PM 51.0788 -27.5639 88° East 552 635 40,000  Level FlightAware Transoceanic
11:19PM 51.0838 -27.3199 88° East 552 635 40,000  Level FlightAware Transoceanic
11:20PM 51.0884 -27.0758 88° East 552 635 40,000  Level FlightAware Transoceanic
11:21PM 51.0925 -26.8317 89° East 552 635 40,000  Level FlightAware Transoceanic
11:22PM 51.0960 -26.5876 89° East 552 635 40,000  Level FlightAware Transoceanic
11:23PM 51.0991 -26.3434 89° East 552 635 40,000  Level FlightAware Transoceanic
11:24PM 51.1016 -26.0992 89° East 552 635 40,000  Level FlightAware Transoceanic
11:25PM 51.1037 -25.8549 89° East 552 635 40,000  Level FlightAware Transoceanic
11:26PM 51.1052 -25.6107 90° East 552 635 40,000  Level FlightAware Transoceanic
11:27PM 51.1062 -25.3664 90° East 552 635 40,000  Level FlightAware Transoceanic
11:28PM 51.1067 -25.1221 90° East 552 635 40,000  Level FlightAware Transoceanic
11:29PM 51.1067 -24.8779 90° East 552 635 40,000  Level FlightAware Transoceanic
11:30PM 51.1062 -24.6336 90° East 552 635 40,000  Level FlightAware Transoceanic
11:31PM 51.1052 -24.3893 90° East 552 635 40,000  Level FlightAware Transoceanic
11:32PM 51.1037 -24.1451 91° East 552 635 40,000  Level FlightAware Transoceanic
11:33PM 51.1016 -23.9008 91° East 552 635 40,000  Level FlightAware Transoceanic
11:34PM 51.0991 -23.6566 91° East 552 635 40,000  Level FlightAware Transoceanic
11:35PM 51.0960 -23.4124 91° East 552 635 40,000  Level FlightAware Transoceanic
11:36PM 51.0925 -23.1683 91° East 552 635 40,000  Level FlightAware Transoceanic
11:37PM 51.0884 -22.9242 92° East 552 635 40,000  Level FlightAware Transoceanic
11:38PM 51.0838 -22.6801 92° East 552 635 40,000  Level FlightAware Transoceanic
11:39PM 51.0788 -22.4361 92° East 552 635 40,000  Level FlightAware Transoceanic
11:40PM 51.0732 -22.1922 92° East 552 635 40,000  Level FlightAware Transoceanic
11:41PM 51.0671 -21.9483 92° East 552 635 40,000  Level FlightAware Transoceanic
11:42PM 51.0604 -21.7045 93° East 552 635 40,000  Level FlightAware Transoceanic
11:43PM 51.0533 -21.4607 93° East 552 635 40,000  Level FlightAware Transoceanic
11:44PM 51.0457 -21.2170 93° East 552 635 40,000  Level FlightAware Transoceanic
11:45PM 51.0376 -20.9734 93° East 552 635 40,000  Level FlightAware Transoceanic
11:46PM 51.0289 -20.7299 93° East 552 635 40,000  Level FlightAware Transoceanic
11:47PM 51.0198 -20.4865 94° East 552 635 40,000  Level FlightAware Transoceanic
11:48PM 51.0102 -20.2432 94° East 552 635 40,000  Level FlightAware Transoceanic
11:49PM 51.0004 -20.0093 94° East  Level FlightAware Approximate
11:50PM 50.9901 -19.7755 94° East  Level FlightAware Approximate
11:51PM 51.0166 -19.7859 83° East  Level FlightAware Approximate
11:52PM 51.0342 -19.5530 83° East  Level FlightAware Approximate
11:53PM 51.0513 -19.3200 83° East  Level FlightAware Approximate
11:54PM 51.0680 -19.0869 83° East  Level FlightAware Approximate
11:55PM 51.0842 -18.8535 84° East  Level FlightAware Approximate
11:56PM 51.0999 -18.6200 84° East  Level FlightAware Approximate
11:57PM 51.1152 -18.3864 84° East  Level FlightAware Approximate
11:58PM 51.1300 -18.1525 84° East  Level FlightAware Approximate
11:59PM 51.1443 -17.9186 84° East  Level FlightAware Approximate
12:00AM 51.1582 -17.6845 85° East  Level FlightAware Approximate
12:01AM 51.1716 -17.4503 85° East  Level FlightAware Approximate
12:02AM 51.1845 -17.2159 85° East  Level FlightAware Approximate
12:03AM 51.1969 -16.9814 85° East  Level FlightAware Approximate
12:04AM 51.2089 -16.7467 85° East  Level FlightAware Approximate
12:05AM 51.2205 -16.5120 85° East  Level FlightAware Approximate
12:06AM 51.2315 -16.2771 86° East  Level FlightAware Approximate
12:07AM 51.2421 -16.0422 86° East  Level FlightAware Approximate
12:08AM 51.2522 -15.8071 86° East  Level FlightAware Approximate
12:09AM 51.2619 -15.5719 86° East  Level FlightAware Approximate
12:10AM 51.2710 -15.3366 86° East  Level FlightAware Approximate
12:11AM 51.2797 -15.1013 87° East  Level FlightAware Approximate
12:12AM 51.2878 -14.8658 87° East  Level FlightAware Approximate
12:13AM 51.2952 -14.6302 87° East  Level FlightAware Approximate
12:14AM 51.3022 -14.3946 87° East  Level FlightAware Approximate
12:15AM 51.3087 -14.1589 87° East  Level FlightAware Approximate
12:16AM 51.3148 -13.9231 88° East  Level FlightAware Approximate
12:17AM 51.3203 -13.6873 88° East  Level FlightAware Approximate
12:18AM 51.3254 -13.4514 88° East  Level FlightAware Approximate
12:19AM 51.3300 -13.2155 88° East  Level FlightAware Approximate
12:20AM 51.3342 -12.9795 88° East  Level FlightAware Approximate
12:21AM 51.3378 -12.7435 88° East  Level FlightAware Approximate
12:22AM 51.3410 -12.5075 89° East  Level FlightAware Approximate
12:23AM 51.3438 -12.2714 89° East  Level FlightAware Approximate
12:24AM 51.3460 -12.0353 89° East  Level FlightAware Approximate
12:25AM 51.3478 -11.7991 89° East  Level FlightAware Approximate
12:26AM 51.3491 -11.5630 89° East  Level FlightAware Approximate
12:27AM 51.3499 -11.3268 90° East  Level FlightAware Approximate
12:28AM 51.3502 -11.0907 90° East  Level FlightAware Approximate
12:29AM 51.3501 -10.8545 90° East  Level FlightAware Approximate
12:30AM 51.3507 -10.6184 90° East  Level FlightAware Approximate
12:31AM 51.3512 -10.3822 90° East  Level FlightAware Approximate
12:32AM 51.3512 -10.1460 90° East  Level FlightAware Approximate
12:32AM 50.7880 -10.3740 90° East 508 585 40,000  Level FlightAware
12:33AM 51.3507 -9.9098 90° East  Level FlightAware Approximate
12:33AM 50.7630 -10.0560 97° East 506 582 40,000  Level FlightAware
12:34AM 50.7530 -9.9230 97° East 505 581 40,000  Level FlightAware
12:34AM 50.7380 -9.7430 97° East 501 577 40,000  Level FlightAware
12:35AM 50.7290 -9.6360 98° East 500 575 40,000  Level FlightAware
12:36AM 50.7130 -9.4490 98° East 503 579 40,000  Level FlightAware
12:36AM 50.7040 -9.3280 97° East 503 579 40,000  Level FlightAware
12:37AM 50.6880 -9.1520 98° East 508 585 40,000  Level FlightAware
12:38AM 50.6740 -8.9900 98° East 508 585 40,000  Level FlightAware
12:38AM 50.6706 -8.9706 98° East 494 568 40,000 -176 Level FlightAware UK
12:38AM 50.6612 -8.8602 98° East 496 571 39,900  Descending FlightAware UK
12:39AM 50.6600 -8.8350 98° East 504 580 40,000 128 Climbing FlightAware
12:39AM 50.6480 -8.6990 98° East 504 580 40,000  Level FlightAware
12:40AM 50.6318 -8.5344 98° East 490 564 40,000  Level FlightAware UK
12:40AM 50.6340 -8.5460 98° East 503 579 40,000  Level FlightAware
12:41AM 50.6150 -8.3440 98° East 501 577 40,000 -125 Level FlightAware
12:41AM 50.6116 -8.3180 98° East 492 566 39,900  Descending FlightAware UK
12:41AM 50.6144 -8.2087 98° East 488 562 40,000 176 Climbing FlightAware UK
12:42AM 50.6130 -8.2650 98° East 506 582 40,000  Level FlightAware
12:42AM 50.6320 -8.0280 83° East 507 583 40,000  Level FlightAware
12:43AM 50.6430 -7.8980 83° East 507 583 40,000 -150 Level FlightAware
12:43AM 50.6440 -7.8793 83° East 492 566 39,900  Descending FlightAware UK
12:43AM 50.6535 -7.7696 83° East 488 562 40,000 136 Climbing FlightAware UK
12:44AM 50.6590 -7.7190 83° East 510 587 40,000  Level FlightAware
12:44AM 50.6700 -7.5950 83° East 510 587 40,000  Level FlightAware
12:44AM 50.6729 -7.5487 83° East 490 564 40,000  Level FlightAware UK
12:45AM 50.6824 -7.4382 83° East 490 564 40,000  Level FlightAware UK
12:45AM 50.6850 -7.4130 83° East 511 588 40,000  Level FlightAware
12:46AM 50.6990 -7.2520 82° East 511 588 40,000  Level FlightAware
12:46AM 50.7100 -7.1180 82° East 511 588 40,000  Level FlightAware
12:46AM 50.7098 -7.1062 82° East 490 564 40,000  Level FlightAware UK
12:47AM 50.7191 -6.9949 82° East 500 575 40,000  Level FlightAware UK
12:47AM 50.7230 -6.9560 82° East 502 578 40,000  Level FlightAware
12:48AM 50.7350 -6.8040 83° East 498 573 40,000  Level FlightAware
12:49AM 50.7462 -6.6496 83° East 492 566 40,000  Level FlightAware UK
12:49AM 50.7470 -6.6500 83° East 493 567 40,000  Level FlightAware
12:49AM 50.7580 -6.5050 83° East 492 566 40,000  Level FlightAware
12:50AM 50.7711 -6.3287 83° East 488 562 40,000  Level FlightAware UK
12:50AM 50.7740 -6.3000 83° East 492 566 40,000  Level FlightAware
12:51AM 50.7850 -6.1520 83° East 494 568 40,000  Level FlightAware
12:52AM 50.7960 -5.9930 83° East 493 567 40,000  Level FlightAware
12:52AM 50.7968 -5.9868 83° East 490 564 40,000  Level FlightAware UK
12:52AM 50.8048 -5.8797 83° East 486 559 40,000  Level FlightAware UK
12:52AM 50.8070 -5.8480 83° East 494 568 40,000  Level FlightAware
12:53AM 50.8170 -5.7070 84° East 494 568 40,000  Level FlightAware
12:54AM 50.8270 -5.5610 84° East 494 568 40,000  Level FlightAware
12:54AM 50.8268 -5.5566 84° East 490 564 40,000  Level FlightAware UK
12:54AM 50.8341 -5.4490 84° East 490 564 40,000  Level FlightAware UK
12:54AM 50.8380 -5.3980 84° East 494 568 40,000  Level FlightAware
12:55AM 50.8480 -5.2370 84° East 496 571 40,000  Level FlightAware
12:55AM 50.8484 -5.2338 84° East 488 562 40,000  Level FlightAware UK
12:56AM 50.8570 -5.0990 84° East 497 572 40,000  Level FlightAware
12:57AM 50.8680 -4.9380 84° East 495 570 40,000  Level FlightAware
12:57AM 50.8760 -4.7930 85° East 493 567 40,000  Level FlightAware
12:58AM 50.8860 -4.6390 84° East 494 568 40,000  Level FlightAware
12:59AM 50.8940 -4.5100 84° East 486 559 40,000  Level FlightAware
12:59AM 50.9030 -4.3490 84° East 476 548 40,000  Level FlightAware
12:59AM 50.9038 -4.3336 84° East 492 566 40,000  Level FlightAware UK
01:00AM 50.9095 -4.2301 84° East 484 557 40,000  Level FlightAware UK
01:00AM 50.9110 -4.2020 84° East 474 545 40,000  Level FlightAware
01:00AM 50.9133 -4.1668 84° East 476 548 40,000  Level FlightAware ADS-B
01:01AM 50.9195 -4.0545 85° East 478 550 40,000  Level FlightAware ADS-B
01:01AM 50.9279 -3.9003 85° East 481 554 40,000  Level FlightAware ADS-B
01:02AM 50.9352 -3.7689 85° East 486 559 40,000  Level FlightAware UK
01:02AM 50.9364 -3.7407 85° East 481 554 40,000  Level FlightAware ADS-B
01:03AM 50.9422 -3.6276 85° East 486 559 40,000  Level FlightAware ADS-B
01:04AM 50.9513 -3.4451 85° East 487 560 40,000  Level FlightAware ADS-B
01:04AM 50.9573 -3.3271 85° East 487 560 40,000  Level FlightAware ADS-B
01:05AM 50.9625 -3.2208 86° East 485 558 40,000  Level FlightAware ADS-B
01:05AM 50.9674 -3.1135 86° East 484 557 40,000  Level FlightAware ADS-B
01:06AM 50.9724 -3.0050 86° East 483 556 40,000  Level FlightAware ADS-B
01:06AM 50.9779 -2.8861 86° East 482 555 40,000  Level FlightAware ADS-B
01:07AM 50.9827 -2.7779 86° East 481 554 40,000  Level FlightAware ADS-B
01:07AM 50.9873 -2.6725 86° East 482 555 40,000  Level FlightAware ADS-B
01:08AM 50.9916 -2.5659 86° East 486 559 40,000  Level FlightAware ADS-B
01:08AM 50.9963 -2.4562 86° East 489 563 40,000  Level FlightAware ADS-B
01:09AM 51.0009 -2.3474 86° East 490 564 40,000  Level FlightAware ADS-B
01:09AM 51.0053 -2.2401 86° East 490 564 40,000  Level FlightAware ADS-B
01:10AM 51.0093 -2.1310 87° East 487 560 40,000  Level FlightAware ADS-B
01:10AM 51.0138 -2.0210 86° East 485 558 40,000  Level FlightAware ADS-B
01:11AM 51.0176 -1.9138 87° East 486 559 40,000  Level FlightAware ADS-B
01:11AM 51.0214 -1.8060 87° East 486 559 40,000  Level FlightAware ADS-B
01:12AM 51.0251 -1.6977 87° East 485 558 40,000  Level FlightAware ADS-B
01:12AM 51.0288 -1.5900 87° East 485 558 40,000  Level FlightAware ADS-B
01:13AM 51.0325 -1.4819 87° East 483 556 40,000  Level FlightAware ADS-B
01:13AM 51.0359 -1.3725 87° East 483 556 40,000  Level FlightAware ADS-B
01:14AM 51.0393 -1.2658 87° East 483 556 40,000  Level FlightAware ADS-B
01:14AM 51.0426 -1.1560 87° East 481 554 40,000  Level FlightAware ADS-B
01:15AM 51.0458 -1.0494 87° East 480 552 40,000  Level FlightAware ADS-B
01:15AM 51.0489 -0.9438 87° East 477 549 40,000  Level FlightAware ADS-B
01:16AM 51.0517 -0.8381 88° East 474 545 40,000  Level FlightAware ADS-B
01:16AM 51.0546 -0.7329 87° East 471 542 40,000  Level FlightAware ADS-B
01:17AM 51.0571 -0.6337 88° East 469 540 40,000  Level FlightAware ADS-B
01:17AM 51.0597 -0.5315 88° East 467 537 40,000  Level FlightAware ADS-B
01:18AM 51.0623 -0.4264 88° East 466 536 40,000  Level FlightAware ADS-B
01:18AM 51.0647 -0.3236 88° East 464 534 40,000  Level FlightAware ADS-B
01:19AM 51.0670 -0.2189 88° East 464 534 40,000  Level FlightAware ADS-B
01:19AM 51.0693 -0.1073 88° East 472 543 40,000  Level FlightAware ADS-B
01:20AM 51.0716 -0.0002 88° East 476 548 40,000  Level FlightAware ADS-B
01:20AM 51.0737 0.1066 88° East 477 549 40,000  Level FlightAware ADS-B
01:21AM 51.0757 0.2138 88° East 479 551 40,000  Level FlightAware ADS-B
01:21AM 51.0775 0.3209 88° East 483 556 40,000  Level FlightAware ADS-B
01:22AM 51.0794 0.4275 88° East 486 559 40,000  Level FlightAware ADS-B
01:22AM 51.0811 0.5360 89° East 487 560 40,000  Level FlightAware ADS-B
01:23AM 51.0828 0.6449 89° East 484 557 40,000  Level FlightAware ADS-B
01:24AM 51.0843 0.7533 89° East 483 556 40,000  Level FlightAware ADS-B
01:24AM 51.0857 0.8624 89° East 485 558 40,000  Level FlightAware ADS-B
01:25AM 51.0869 0.9723 89° East 489 563 40,000  Level FlightAware ADS-B
01:25AM 51.0883 1.0803 89° East 492 566 40,000  Level FlightAware ADS-B
01:26AM 51.0896 1.1983 89° East 491 565 40,000  Level FlightAware ADS-B
01:26AM 51.0907 1.3149 89° East 491 565 40,000  Level FlightAware ADS-B
01:27AM 51.0915 1.4261 89° East 490 564 40,000  Level FlightAware ADS-B
01:27AM 51.0927 1.5494 89° East 494 568 40,000  Level FlightAware UK
01:28AM 51.0930 1.6300 89° East 488 562 40,000 -300 Level FlightAware
01:28AM 51.0859 1.7635 89° East 492 566 39,700 -522 Descending FlightAware UK
01:28AM 51.0820 1.7890 89° East 481 554 39,600 -889 Descending FlightAware
01:29AM 51.0614 1.9444 102° East 462 532 38,900 -1,462 Descending FlightAware ADS-B
01:30AM 51.0468 2.0535 102° East 461 531 37,700 -1,583 Descending FlightAware ADS-B
01:30AM 51.0297 2.1797 102° East 450 518 37,000 -686 Descending FlightAware ADS-B
01:31AM 51.0163 2.2777 102° East 484 557 36,900  Descending FlightAware UK
01:31AM 51.0080 2.3340 102° East 450 518 37,000 214 Climbing FlightAware
01:31AM 51.0035 2.3678 102° East 444 511 37,000 -143 Level FlightAware ADS-B
01:32AM 50.9891 2.4715 102° East 488 562 36,900  Descending FlightAware UK
01:32AM 50.9880 2.4780 102° East 450 518 37,000 140 Climbing FlightAware
01:33AM 50.9700 2.6080 102° East 449 517 37,000  Level FlightAware
01:33AM 50.9530 2.7320 102° East 446 513 37,000  Level FlightAware
01:34AM 50.9310 2.8800 103° East 444 511 37,000  Level FlightAware
01:35AM 50.9135 3.0088 103° East 488 562 37,000  Level FlightAware UK
01:35AM 50.9110 3.0190 103° East 443 510 37,000  Level FlightAware
01:35AM 50.8970 3.1270 102° East 443 510 37,000  Level FlightAware
01:36AM 50.8689 3.3107 102° East 488 562 37,000 -73 Level FlightAware UK
01:37AM 50.8550 3.4052 103° East 486 559 36,900 -700 Descending FlightAware UK
01:37AM 50.8409 3.4996 103° East 488 562 36,300 -714 Descending FlightAware UK
01:37AM 50.8430 3.4830 103° East 444 511 36,400 -1,474 Climbing FlightAware
01:38AM 50.8170 3.6610 103° East 452 520 34,900 -1,786 Descending FlightAware
01:39AM 50.7944 3.8090 103° East 500 575 33,900 -870 Descending FlightAware UK
01:39AM 50.7796 3.9075 103° East 498 573 33,900 -190 Level FlightAware UK
01:41AM 50.7317 4.2179 104° East 492 566 33,500 -367 Descending FlightAware UK
01:42AM 50.7170 4.3100 104° East 465 535 33,000 -236 Descending FlightAware
01:43AM 50.6609 4.6303 104° East 502 578 33,000  Level FlightAware UK
01:44AM 50.7110 4.3440 104° East 469 540 33,000  Level FlightAware
01:44AM 50.6900 4.4760 104° East 475 547 33,000  Level FlightAware
01:45AM 50.6810 4.5350 104° East 475 547 33,000  Level FlightAware
01:47AM 50.6450 4.7620 104° East 469 540 33,000  Level FlightAware
01:47AM 50.5350 5.5060 103° East 473 544 33,000  Level FlightAware
01:48AM 50.5280 5.6430 95° East 474 545 33,000 -750 Level FlightAware
01:49AM 50.5210 5.7750 95° East 485 558 32,000 -1,755 Descending FlightAware
01:50AM 50.5130 5.9960 93° East 473 544 29,900 -1,486 Descending FlightAware
01:51AM 50.5110 6.0590 93° East 472 543 29,300 -1,227 Descending FlightAware
01:52AM 50.5020 6.2690 94° East 461 531 27,200 -2,382 Descending FlightAware
01:53AM 50.4860 6.5940 94° East 441 507 23,900 -3,273 Descending FlightAware
01:54AM 50.4800 6.7380 94° East 432 497 22,400 -2,000 Descending FlightAware
01:54AM 50.4740 6.8490 95° East 426 490 21,200 -1,842 Descending FlightAware
01:55AM 50.4380 7.0100 109° East 400 460 19,300 -1,611 Descending FlightAware
01:56AM 50.3840 7.1320 125° Southeast 381 438 18,300 -1,186 Descending FlightAware
01:57AM 50.3460 7.2100 127° Southeast 381 438 17,600 -1,140 Descending FlightAware
01:58AM 50.2900 7.3250 127° Southeast 377 434 16,400 -1,596 Descending FlightAware
01:58AM 50.2430 7.4210 127° Southeast 366 421 15,100 -1,756 Descending FlightAware
01:59AM 50.1930 7.5230 127° Southeast 366 421 14,000 -2,045 Descending FlightAware
02:00AM 50.1560 7.6060 125° Southeast 356 410 12,100 -1,818 Descending FlightAware
02:01AM 50.1020 7.7280 125° Southeast 322 371 11,000 -1,370 Descending FlightAware
02:01AM 50.0760 7.7910 123° Southeast 287 330 10,000 -1,875 Descending FlightAware
02:02AM 50.0510 7.8320 134° Southeast 280 322 9,000 -1,333 Descending FlightAware
02:02AM 50.0320 7.8370 170° South 262 302 9,000  Level FlightAware
02:02AM 50.0110 7.8400 175° South 246 283 9,000  Level FlightAware
02:02AM 50.0010 7.8480 153° Southeast 245 282 9,000 -649 Level FlightAware
02:03AM 49.9770 7.8780 141° Southeast 242 278 8,600 -1,099 Descending FlightAware
02:04AM 49.9450 7.9210 139° Southeast 240 276 7,700 -1,400 Descending FlightAware
02:04AM 49.9360 7.9530 114° Southeast 246 283 7,200 -1,946 Descending FlightAware
02:04AM 49.9310 7.9960 100° East 242 278 6,500 -1,714 Descending FlightAware
02:05AM 49.9230 8.0540 102° East 235 270 5,600 -1,421 Descending FlightAware
02:06AM 49.9270 8.1190 85° East 227 261 4,700 -1,286 Descending FlightAware
02:06AM 49.9380 8.1640 69° East 227 261 4,100 -923 Descending FlightAware
02:06AM 49.9420 8.1790 67° East 225 259 4,100  Level FlightAware
02:07AM 49.9530 8.2260 70° East 226 260 4,100 -200 Level FlightAware
02:07AM 49.9640 8.2700 69° East 208 239 3,900 -600 Descending FlightAware
02:07AM 49.9670 8.2820 69° East 206 237 3,700 -1,171 Descending FlightAware
02:08AM 49.9770 8.3250 70° East 200 230 3,100 -1,200 Descending FlightAware
02:08AM 49.9810 8.3400 67° East 197 227 2,900 -955 Descending FlightAware
02:09AM 49.9910 8.3830 70° East 179 206 2,400 -894 Descending FlightAware
02:09AM 49.9940 8.3940 67° East 173 199 2,200 -878 Descending FlightAware
02:09AM 50.0020 8.4280 70° East 177 204 1,800 -1,000 Descending FlightAware
02:10AM 50.0100 8.4610 69° East 166 191 1,300 -432 Descending FlightAware
02:11AM 50.0160 8.4850 69° East 149 171 1,000 -209 Descending FlightAware
02:12AM 50.0340 8.5610 70° East 58 67 -2,143 Descending FlightAware
02:12AM 50.0350 8.5660 73° East 45 52  Level FlightAware
02:12AM 50.0370 8.5710 58° Northeast 18 21  Level FlightAware
02:13AM 50.0380 8.5730 52° Northeast 32 37  Level FlightAware
02:13AM 50.0400 8.5740 18° North 26 30  Level FlightAware
02:13AM 50.0400 8.5750 90° East 28 32  Level FlightAware
02:14AM 50.0400 8.5780 90° East 16 18  Level FlightAware
02:14AM 50.0410 8.5790 33° Northeast 17 20  Level FlightAware
02:15AM 50.0420 8.5840 73° East 16 18  Level FlightAware
02:16AM 50.0430 8.5860 52° Northeast 24 28  Level FlightAware
02:16AM 50.0450 8.5860 360° North 24 28  Level FlightAware
02:17AM 50.0460 8.5870 33° Northeast 21 24  Level FlightAware
02:17AM 50.0460 8.5880 90° East 23 26  Level FlightAware
02:18AM 50.0480 8.5870 342° North 22 25  Level FlightAware
02:18AM 50.0490 8.5870 360° North 21 24  Level FlightAware
02:18AM 50.0490 8.5860 270° West 20 23  Level FlightAware
02:19AM 50.0490 8.5850 270° West 21 24  Level FlightAware
02:20AM 50.0490 8.5830 270° West 16 18  Level FlightAware
02:20AM 50.0480 8.5830 180° South 12 14  Level FlightAware
02:20AM 50.0480 8.5840 90° East 10 12  Level FlightAware
02:23AM 50.0167 8.5667 111° Southeast  Level FlightAware Approximate
02:24AM 50.0264 8.5431 111° Southeast  Level Estimated
02:25AM 50.0264 8.5431 111° Southeast  Level Estimated
02:26AM 50.0264 8.5431 111° Southeast  Level Estimated
02:27AM 50.0264 8.5431 111° Southeast  Level Estimated
02:28AM 50.0264 8.5431 111° Southeast  Level Estimated